sensor_id;sensor_type;location;lat;lon;timestamp;temperature;humidity
68248;SHT30;55064;49.636;12.164;2024-02-04T00:02:16;6.75;99.79
68248;SHT30;55064;49.636;12.164;2024-02-04T00:04:42;6.73;99.87
68248;SHT30;55064;49.636;12.164;2024-02-04T00:07:07;6.73;99.72
68248;SHT30;55064;49.636;12.164;2024-02-04T00:09:33;6.75;99.75
68248;SHT30;55064;49.636;12.164;2024-02-04T00:11:58;6.76;99.62
68248;SHT30;55064;49.636;12.164;2024-02-04T00:14:26;6.76;99.69
68248;SHT30;55064;49.636;12.164;2024-02-04T00:16:51;6.80;99.54
68248;SHT30;55064;49.636;12.164;2024-02-04T00:19:17;6.79;99.47
68248;SHT30;55064;49.636;12.164;2024-02-04T00:21:42;6.80;99.34
68248;SHT30;55064;49.636;12.164;2024-02-04T00:24:07;6.79;99.45
68248;SHT30;55064;49.636;12.164;2024-02-04T00:26:33;6.77;99.59
68248;SHT30;55064;49.636;12.164;2024-02-04T00:28:58;6.79;99.51
68248;SHT30;55064;49.636;12.164;2024-02-04T00:31:23;6.80;99.54
68248;SHT30;55064;49.636;12.164;2024-02-04T00:33:49;6.77;99.61
68248;SHT30;55064;49.636;12.164;2024-02-04T00:36:14;6.83;99.46
68248;SHT30;55064;49.636;12.164;2024-02-04T00:38:40;6.83;99.29
68248;SHT30;55064;49.636;12.164;2024-02-04T00:41:05;6.81;99.29
68248;SHT30;55064;49.636;12.164;2024-02-04T00:43:31;6.81;99.34
68248;SHT30;55064;49.636;12.164;2024-02-04T00:45:56;6.80;99.51
68248;SHT30;55064;49.636;12.164;2024-02-04T00:48:21;6.80;99.56
68248;SHT30;55064;49.636;12.164;2024-02-04T00:50:47;6.80;99.61
68248;SHT30;55064;49.636;12.164;2024-02-04T00:53:12;6.81;99.59
68248;SHT30;55064;49.636;12.164;2024-02-04T00:55:38;6.81;99.45
68248;SHT30;55064;49.636;12.164;2024-02-04T00:58:03;6.81;99.52
68248;SHT30;55064;49.636;12.164;2024-02-04T01:00:28;6.84;99.52
68248;SHT30;55064;49.636;12.164;2024-02-04T01:02:54;6.81;99.56
68248;SHT30;55064;49.636;12.164;2024-02-04T01:05:19;6.80;99.59
68248;SHT30;55064;49.636;12.164;2024-02-04T01:07:44;6.77;99.53
68248;SHT30;55064;49.636;12.164;2024-02-04T01:10:10;6.81;99.41
68248;SHT30;55064;49.636;12.164;2024-02-04T01:12:35;6.81;99.26
68248;SHT30;55064;49.636;12.164;2024-02-04T01:15:01;6.84;99.13
68248;SHT30;55064;49.636;12.164;2024-02-04T01:17:28;6.86;99.21
68248;SHT30;55064;49.636;12.164;2024-02-04T01:19:53;6.90;99.12
68248;SHT30;55064;49.636;12.164;2024-02-04T01:22:19;6.83;99.23
68248;SHT30;55064;49.636;12.164;2024-02-04T01:24:50;6.80;99.45
68248;SHT30;55064;49.636;12.164;2024-02-04T01:27:15;6.80;99.34
68248;SHT30;55064;49.636;12.164;2024-02-04T01:29:41;6.81;99.36
68248;SHT30;55064;49.636;12.164;2024-02-04T01:32:06;6.80;99.17
68248;SHT30;55064;49.636;12.164;2024-02-04T01:34:31;6.81;99.23
68248;SHT30;55064;49.636;12.164;2024-02-04T01:36:57;6.81;98.92
68248;SHT30;55064;49.636;12.164;2024-02-04T01:39:22;6.86;98.89
68248;SHT30;55064;49.636;12.164;2024-02-04T01:41:47;6.84;98.81
68248;SHT30;55064;49.636;12.164;2024-02-04T01:44:13;6.83;98.85
68248;SHT30;55064;49.636;12.164;2024-02-04T01:46:38;6.87;98.70
68248;SHT30;55064;49.636;12.164;2024-02-04T01:49:03;6.84;98.74
68248;SHT30;55064;49.636;12.164;2024-02-04T01:51:29;6.84;98.68
68248;SHT30;55064;49.636;12.164;2024-02-04T01:53:54;6.84;98.80
68248;SHT30;55064;49.636;12.164;2024-02-04T01:56:20;6.86;98.57
68248;SHT30;55064;49.636;12.164;2024-02-04T01:58:46;6.84;98.75
68248;SHT30;55064;49.636;12.164;2024-02-04T02:01:12;6.81;98.61
68248;SHT30;55064;49.636;12.164;2024-02-04T02:03:39;6.83;98.69
68248;SHT30;55064;49.636;12.164;2024-02-04T02:06:05;6.87;98.65
68248;SHT30;55064;49.636;12.164;2024-02-04T02:08:32;6.84;98.68
68248;SHT30;55064;49.636;12.164;2024-02-04T02:11:06;6.84;98.78
68248;SHT30;55064;49.636;12.164;2024-02-04T02:13:34;6.83;98.61
68248;SHT30;55064;49.636;12.164;2024-02-04T02:16:11;6.84;98.54
68248;SHT30;55064;49.636;12.164;2024-02-04T02:18:44;6.86;98.60
68248;SHT30;55064;49.636;12.164;2024-02-04T02:24:16;6.83;99.05
68248;SHT30;55064;49.636;12.164;2024-02-04T02:26:44;6.79;99.15
68248;SHT30;55064;49.636;12.164;2024-02-04T02:29:09;6.77;99.31
68248;SHT30;55064;49.636;12.164;2024-02-04T02:31:37;6.76;99.54
68248;SHT30;55064;49.636;12.164;2024-02-04T02:34:04;6.75;99.56
68248;SHT30;55064;49.636;12.164;2024-02-04T02:36:34;6.76;99.45
68248;SHT30;55064;49.636;12.164;2024-02-04T02:39:08;6.79;99.29
68248;SHT30;55064;49.636;12.164;2024-02-04T02:41:35;6.76;99.31
68248;SHT30;55064;49.636;12.164;2024-02-04T02:44:03;6.76;99.45
68248;SHT30;55064;49.636;12.164;2024-02-04T02:46:30;6.79;99.51
68248;SHT30;55064;49.636;12.164;2024-02-04T02:48:55;6.76;99.34
68248;SHT30;55064;49.636;12.164;2024-02-04T02:51:21;6.75;99.34
68248;SHT30;55064;49.636;12.164;2024-02-04T02:53:46;6.72;99.54
68248;SHT30;55064;49.636;12.164;2024-02-04T02:56:11;6.72;99.46
68248;SHT30;55064;49.636;12.164;2024-02-04T02:58:37;6.70;99.50
68248;SHT30;55064;49.636;12.164;2024-02-04T03:01:02;6.72;99.63
68248;SHT30;55064;49.636;12.164;2024-02-04T03:03:28;6.70;99.79
68248;SHT30;55064;49.636;12.164;2024-02-04T03:05:53;6.73;99.71
68248;SHT30;55064;49.636;12.164;2024-02-04T03:08:18;6.73;99.75
68248;SHT30;55064;49.636;12.164;2024-02-04T03:10:44;6.73;99.79
68248;SHT30;55064;49.636;12.164;2024-02-04T03:13:09;6.70;99.81
68248;SHT30;55064;49.636;12.164;2024-02-04T03:15:34;6.66;99.92
68248;SHT30;55064;49.636;12.164;2024-02-04T03:18:00;6.69;99.93
68248;SHT30;55064;49.636;12.164;2024-02-04T03:20:25;6.69;99.97
68248;SHT30;55064;49.636;12.164;2024-02-04T03:22:50;6.68;99.99
68248;SHT30;55064;49.636;12.164;2024-02-04T03:25:16;6.66;99.99
68248;SHT30;55064;49.636;12.164;2024-02-04T03:27:42;6.68;99.97
68248;SHT30;55064;49.636;12.164;2024-02-04T03:30:07;6.66;99.92
68248;SHT30;55064;49.636;12.164;2024-02-04T03:32:33;6.65;99.79
68248;SHT30;55064;49.636;12.164;2024-02-04T03:35:02;6.68;99.76
68248;SHT30;55064;49.636;12.164;2024-02-04T03:37:28;6.70;99.78
68248;SHT30;55064;49.636;12.164;2024-02-04T03:39:54;6.73;99.68
68248;SHT30;55064;49.636;12.164;2024-02-04T03:42:19;6.72;99.81
68248;SHT30;55064;49.636;12.164;2024-02-04T03:44:46;6.70;99.86
68248;SHT30;55064;49.636;12.164;2024-02-04T03:47:12;6.69;99.84
68248;SHT30;55064;49.636;12.164;2024-02-04T03:49:39;6.70;99.91
68248;SHT30;55064;49.636;12.164;2024-02-04T03:52:05;6.66;99.94
68248;SHT30;55064;49.636;12.164;2024-02-04T03:54:30;6.76;99.52
68248;SHT30;55064;49.636;12.164;2024-02-04T03:56:55;6.72;99.43
68248;SHT30;55064;49.636;12.164;2024-02-04T03:59:21;6.73;99.59
68248;SHT30;55064;49.636;12.164;2024-02-04T04:01:50;6.75;99.37
68248;SHT30;55064;49.636;12.164;2024-02-04T04:04:16;6.72;99.23
68248;SHT30;55064;49.636;12.164;2024-02-04T04:06:42;6.75;99.33
68248;SHT30;55064;49.636;12.164;2024-02-04T04:09:08;6.75;99.34
68248;SHT30;55064;49.636;12.164;2024-02-04T04:11:33;6.73;99.30
68248;SHT30;55064;49.636;12.164;2024-02-04T04:13:59;6.75;99.23
68248;SHT30;55064;49.636;12.164;2024-02-04T04:16:24;6.75;99.18
68248;SHT30;55064;49.636;12.164;2024-02-04T04:18:49;6.77;98.91
68248;SHT30;55064;49.636;12.164;2024-02-04T04:21:15;6.80;98.80
68248;SHT30;55064;49.636;12.164;2024-02-04T04:23:41;6.81;98.70
68248;SHT30;55064;49.636;12.164;2024-02-04T04:26:06;6.81;98.75
68248;SHT30;55064;49.636;12.164;2024-02-04T04:28:31;6.84;98.75
68248;SHT30;55064;49.636;12.164;2024-02-04T04:30:57;6.80;98.76
68248;SHT30;55064;49.636;12.164;2024-02-04T04:33:22;6.80;98.78
68248;SHT30;55064;49.636;12.164;2024-02-04T04:35:47;6.80;98.74
68248;SHT30;55064;49.636;12.164;2024-02-04T04:38:13;6.80;98.75
68248;SHT30;55064;49.636;12.164;2024-02-04T04:40:38;6.81;98.78
68248;SHT30;55064;49.636;12.164;2024-02-04T04:43:06;6.80;98.77
68248;SHT30;55064;49.636;12.164;2024-02-04T04:45:31;6.77;98.93
68248;SHT30;55064;49.636;12.164;2024-02-04T04:47:57;6.77;98.94
68248;SHT30;55064;49.636;12.164;2024-02-04T04:50:22;6.80;98.87
68248;SHT30;55064;49.636;12.164;2024-02-04T04:52:48;6.84;98.85
68248;SHT30;55064;49.636;12.164;2024-02-04T04:55:13;6.81;98.87
68248;SHT30;55064;49.636;12.164;2024-02-04T04:57:39;6.79;98.93
68248;SHT30;55064;49.636;12.164;2024-02-04T05:00:05;6.83;98.85
68248;SHT30;55064;49.636;12.164;2024-02-04T05:02:32;6.81;98.86
68248;SHT30;55064;49.636;12.164;2024-02-04T05:04:58;6.84;98.84
68248;SHT30;55064;49.636;12.164;2024-02-04T05:07:25;6.83;98.84
68248;SHT30;55064;49.636;12.164;2024-02-04T05:09:51;6.84;98.89
68248;SHT30;55064;49.636;12.164;2024-02-04T05:12:16;6.81;99.01
68248;SHT30;55064;49.636;12.164;2024-02-04T05:14:41;6.83;99.00
68248;SHT30;55064;49.636;12.164;2024-02-04T05:17:07;6.81;98.98
68248;SHT30;55064;49.636;12.164;2024-02-04T05:19:33;6.84;99.06
68248;SHT30;55064;49.636;12.164;2024-02-04T05:21:58;6.80;99.12
68248;SHT30;55064;49.636;12.164;2024-02-04T05:24:24;6.81;99.07
68248;SHT30;55064;49.636;12.164;2024-02-04T05:26:49;6.84;99.06
68248;SHT30;55064;49.636;12.164;2024-02-04T05:29:14;6.81;98.90
68248;SHT30;55064;49.636;12.164;2024-02-04T05:31:41;6.80;98.90
68248;SHT30;55064;49.636;12.164;2024-02-04T05:34:07;6.83;98.77
68248;SHT30;55064;49.636;12.164;2024-02-04T05:36:33;6.83;98.66
68248;SHT30;55064;49.636;12.164;2024-02-04T05:39:08;6.79;98.56
68248;SHT30;55064;49.636;12.164;2024-02-04T05:41:34;6.83;98.40
68248;SHT30;55064;49.636;12.164;2024-02-04T05:43:59;6.84;98.22
68248;SHT30;55064;49.636;12.164;2024-02-04T05:46:25;6.84;98.15
68248;SHT30;55064;49.636;12.164;2024-02-04T05:48:52;6.81;98.25
68248;SHT30;55064;49.636;12.164;2024-02-04T05:51:18;6.80;98.28
68248;SHT30;55064;49.636;12.164;2024-02-04T05:53:43;6.79;98.43
68248;SHT30;55064;49.636;12.164;2024-02-04T05:56:08;6.79;98.50
68248;SHT30;55064;49.636;12.164;2024-02-04T05:58:34;6.77;98.54
68248;SHT30;55064;49.636;12.164;2024-02-04T06:00:59;6.79;98.41
68248;SHT30;55064;49.636;12.164;2024-02-04T06:03:25;6.77;98.57
68248;SHT30;55064;49.636;12.164;2024-02-04T06:05:50;6.77;98.52
68248;SHT30;55064;49.636;12.164;2024-02-04T06:08:15;6.76;98.72
68248;SHT30;55064;49.636;12.164;2024-02-04T06:10:41;6.73;98.84
68248;SHT30;55064;49.636;12.164;2024-02-04T06:13:06;6.72;98.93
68248;SHT30;55064;49.636;12.164;2024-02-04T06:15:32;6.72;98.79
68248;SHT30;55064;49.636;12.164;2024-02-04T06:17:57;6.73;98.77
68248;SHT30;55064;49.636;12.164;2024-02-04T06:20:23;6.73;98.84
68248;SHT30;55064;49.636;12.164;2024-02-04T06:22:48;6.77;98.88
68248;SHT30;55064;49.636;12.164;2024-02-04T06:25:13;6.75;98.72
68248;SHT30;55064;49.636;12.164;2024-02-04T06:27:39;6.75;98.78
68248;SHT30;55064;49.636;12.164;2024-02-04T06:30:06;6.75;98.73
68248;SHT30;55064;49.636;12.164;2024-02-04T06:32:31;6.73;98.70
68248;SHT30;55064;49.636;12.164;2024-02-04T06:34:57;6.73;98.48
68248;SHT30;55064;49.636;12.164;2024-02-04T06:37:23;6.77;98.35
68248;SHT30;55064;49.636;12.164;2024-02-04T06:39:49;6.75;98.40
68248;SHT30;55064;49.636;12.164;2024-02-04T06:42:14;6.77;98.21
68248;SHT30;55064;49.636;12.164;2024-02-04T06:44:43;6.76;97.88
68248;SHT30;55064;49.636;12.164;2024-02-04T06:47:08;6.76;97.88
68248;SHT30;55064;49.636;12.164;2024-02-04T06:49:36;6.77;97.84
68248;SHT30;55064;49.636;12.164;2024-02-04T06:52:01;6.80;97.81
68248;SHT30;55064;49.636;12.164;2024-02-04T06:54:26;6.80;97.72
68248;SHT30;55064;49.636;12.164;2024-02-04T06:56:52;6.83;97.70
68248;SHT30;55064;49.636;12.164;2024-02-04T06:59:20;6.77;97.98
68248;SHT30;55064;49.636;12.164;2024-02-04T07:01:45;6.77;97.85
68248;SHT30;55064;49.636;12.164;2024-02-04T07:04:11;6.75;97.86
68248;SHT30;55064;49.636;12.164;2024-02-04T07:06:36;6.77;97.67
68248;SHT30;55064;49.636;12.164;2024-02-04T07:09:02;6.80;97.60
68248;SHT30;55064;49.636;12.164;2024-02-04T07:11:27;6.77;97.68
68248;SHT30;55064;49.636;12.164;2024-02-04T07:13:53;6.79;97.69
68248;SHT30;55064;49.636;12.164;2024-02-04T07:16:24;6.73;98.02
68248;SHT30;55064;49.636;12.164;2024-02-04T07:18:49;6.77;97.91
68248;SHT30;55064;49.636;12.164;2024-02-04T07:21:15;6.80;97.89
68248;SHT30;55064;49.636;12.164;2024-02-04T07:23:41;6.76;97.88
68248;SHT30;55064;49.636;12.164;2024-02-04T07:26:06;6.72;98.10
68248;SHT30;55064;49.636;12.164;2024-02-04T07:28:32;6.70;98.29
68248;SHT30;55064;49.636;12.164;2024-02-04T07:30:57;6.73;98.03
68248;SHT30;55064;49.636;12.164;2024-02-04T07:33:23;6.75;98.02
68248;SHT30;55064;49.636;12.164;2024-02-04T07:35:48;6.79;97.80
68248;SHT30;55064;49.636;12.164;2024-02-04T07:38:13;6.81;97.55
68248;SHT30;55064;49.636;12.164;2024-02-04T07:40:39;6.83;97.21
68248;SHT30;55064;49.636;12.164;2024-02-04T07:43:04;6.80;97.58
68248;SHT30;55064;49.636;12.164;2024-02-04T07:45:30;6.81;97.54
68248;SHT30;55064;49.636;12.164;2024-02-04T07:47:55;6.81;97.78
68248;SHT30;55064;49.636;12.164;2024-02-04T07:50:21;6.84;97.70
68248;SHT30;55064;49.636;12.164;2024-02-04T07:52:46;6.79;97.69
68248;SHT30;55064;49.636;12.164;2024-02-04T07:55:11;6.81;97.77
68248;SHT30;55064;49.636;12.164;2024-02-04T07:57:37;6.84;97.57
68248;SHT30;55064;49.636;12.164;2024-02-04T08:00:02;6.83;97.64
68248;SHT30;55064;49.636;12.164;2024-02-04T08:02:30;6.84;97.48
68248;SHT30;55064;49.636;12.164;2024-02-04T08:04:56;6.84;97.52
68248;SHT30;55064;49.636;12.164;2024-02-04T08:07:22;6.84;97.63
68248;SHT30;55064;49.636;12.164;2024-02-04T08:09:48;6.84;97.54
68248;SHT30;55064;49.636;12.164;2024-02-04T08:12:16;6.84;97.77
68248;SHT30;55064;49.636;12.164;2024-02-04T08:14:41;6.83;97.92
68248;SHT30;55064;49.636;12.164;2024-02-04T08:17:06;6.86;97.95
68248;SHT30;55064;49.636;12.164;2024-02-04T08:19:32;6.89;97.91
68248;SHT30;55064;49.636;12.164;2024-02-04T08:21:57;6.90;97.75
68248;SHT30;55064;49.636;12.164;2024-02-04T08:24:24;6.89;97.94
68248;SHT30;55064;49.636;12.164;2024-02-04T08:26:49;6.91;98.15
68248;SHT30;55064;49.636;12.164;2024-02-04T08:29:15;6.90;98.32
68248;SHT30;55064;49.636;12.164;2024-02-04T08:31:40;6.90;98.37
68248;SHT30;55064;49.636;12.164;2024-02-04T08:34:05;6.89;98.06
68248;SHT30;55064;49.636;12.164;2024-02-04T08:36:32;6.90;98.25
68248;SHT30;55064;49.636;12.164;2024-02-04T08:38:57;6.91;98.43
68248;SHT30;55064;49.636;12.164;2024-02-04T08:41:23;6.91;98.35
68248;SHT30;55064;49.636;12.164;2024-02-04T08:43:48;6.91;98.29
68248;SHT30;55064;49.636;12.164;2024-02-04T08:46:13;6.93;98.40
68248;SHT30;55064;49.636;12.164;2024-02-04T08:48:39;6.93;98.41
68248;SHT30;55064;49.636;12.164;2024-02-04T08:51:10;6.93;98.82
68248;SHT30;55064;49.636;12.164;2024-02-04T08:53:35;6.97;98.96
68248;SHT30;55064;49.636;12.164;2024-02-04T08:56:01;6.96;99.02
68248;SHT30;55064;49.636;12.164;2024-02-04T08:58:26;6.93;99.11
68248;SHT30;55064;49.636;12.164;2024-02-04T09:00:51;6.96;98.75
68248;SHT30;55064;49.636;12.164;2024-02-04T09:03:17;6.94;98.75
68248;SHT30;55064;49.636;12.164;2024-02-04T09:05:42;6.97;98.89
68248;SHT30;55064;49.636;12.164;2024-02-04T09:08:07;6.97;98.74
68248;SHT30;55064;49.636;12.164;2024-02-04T09:10:33;6.96;98.98
68248;SHT30;55064;49.636;12.164;2024-02-04T09:12:58;6.96;99.18
68248;SHT30;55064;49.636;12.164;2024-02-04T09:15:23;7.01;98.97
68248;SHT30;55064;49.636;12.164;2024-02-04T09:17:49;7.00;99.06
68248;SHT30;55064;49.636;12.164;2024-02-04T09:20:14;7.00;99.09
68248;SHT30;55064;49.636;12.164;2024-02-04T09:22:40;7.00;99.16
68248;SHT30;55064;49.636;12.164;2024-02-04T09:25:06;6.99;99.19
68248;SHT30;55064;49.636;12.164;2024-02-04T09:27:31;7.03;99.17
68248;SHT30;55064;49.636;12.164;2024-02-04T09:29:57;7.05;99.24
68248;SHT30;55064;49.636;12.164;2024-02-04T09:32:23;7.04;99.25
68248;SHT30;55064;49.636;12.164;2024-02-04T09:34:49;7.07;99.36
68248;SHT30;55064;49.636;12.164;2024-02-04T09:37:14;7.14;99.22
68248;SHT30;55064;49.636;12.164;2024-02-04T09:39:40;7.14;99.32
68248;SHT30;55064;49.636;12.164;2024-02-04T09:42:05;7.07;99.41
68248;SHT30;55064;49.636;12.164;2024-02-04T09:44:31;7.12;99.24
68248;SHT30;55064;49.636;12.164;2024-02-04T09:46:57;7.12;99.28
68248;SHT30;55064;49.636;12.164;2024-02-04T09:49:26;7.14;98.77
68248;SHT30;55064;49.636;12.164;2024-02-04T09:51:51;7.15;98.79
68248;SHT30;55064;49.636;12.164;2024-02-04T09:54:18;7.17;98.81
68248;SHT30;55064;49.636;12.164;2024-02-04T09:56:47;7.15;99.28
68248;SHT30;55064;49.636;12.164;2024-02-04T09:59:12;7.17;99.15
68248;SHT30;55064;49.636;12.164;2024-02-04T10:01:38;7.22;98.71
68248;SHT30;55064;49.636;12.164;2024-02-04T10:04:04;7.25;98.17
68248;SHT30;55064;49.636;12.164;2024-02-04T10:06:29;7.28;98.33
68248;SHT30;55064;49.636;12.164;2024-02-04T10:08:54;7.28;98.13
68248;SHT30;55064;49.636;12.164;2024-02-04T10:11:20;7.28;98.18
68248;SHT30;55064;49.636;12.164;2024-02-04T10:13:46;7.29;97.95
68248;SHT30;55064;49.636;12.164;2024-02-04T10:16:13;7.35;97.53
68248;SHT30;55064;49.636;12.164;2024-02-04T10:18:41;7.36;97.55
68248;SHT30;55064;49.636;12.164;2024-02-04T10:21:15;7.36;97.29
68248;SHT30;55064;49.636;12.164;2024-02-04T10:23:41;7.41;97.29
68248;SHT30;55064;49.636;12.164;2024-02-04T10:26:06;7.36;97.35
68248;SHT30;55064;49.636;12.164;2024-02-04T10:28:32;7.39;97.85
68248;SHT30;55064;49.636;12.164;2024-02-04T10:30:57;7.41;97.47
68248;SHT30;55064;49.636;12.164;2024-02-04T10:33:22;7.38;97.52
68248;SHT30;55064;49.636;12.164;2024-02-04T10:35:48;7.42;97.25
68248;SHT30;55064;49.636;12.164;2024-02-04T10:38:13;7.39;97.78
68248;SHT30;55064;49.636;12.164;2024-02-04T10:40:38;7.34;98.20
68248;SHT30;55064;49.636;12.164;2024-02-04T10:43:04;7.35;98.44
68248;SHT30;55064;49.636;12.164;2024-02-04T10:45:35;7.38;98.45
68248;SHT30;55064;49.636;12.164;2024-02-04T10:48:03;7.42;98.96
68248;SHT30;55064;49.636;12.164;2024-02-04T10:50:33;7.41;99.07
68248;SHT30;55064;49.636;12.164;2024-02-04T10:53:04;7.39;98.67
68248;SHT30;55064;49.636;12.164;2024-02-04T10:55:33;7.42;98.82
68248;SHT30;55064;49.636;12.164;2024-02-04T10:58:02;7.42;98.71
68248;SHT30;55064;49.636;12.164;2024-02-04T11:00:28;7.38;98.93
68248;SHT30;55064;49.636;12.164;2024-02-04T11:02:54;7.39;98.99
68248;SHT30;55064;49.636;12.164;2024-02-04T11:05:21;7.46;98.67
68248;SHT30;55064;49.636;12.164;2024-02-04T11:07:48;7.44;98.23
68248;SHT30;55064;49.636;12.164;2024-02-04T11:10:14;7.49;97.87
68248;SHT30;55064;49.636;12.164;2024-02-04T11:12:41;7.49;97.95
68248;SHT30;55064;49.636;12.164;2024-02-04T11:15:09;7.54;97.99
68248;SHT30;55064;49.636;12.164;2024-02-04T11:17:57;7.56;97.56
68248;SHT30;55064;49.636;12.164;2024-02-04T11:23:47;7.62;97.49
68248;SHT30;55064;49.636;12.164;2024-02-04T11:26:16;7.66;97.42
68248;SHT30;55064;49.636;12.164;2024-02-04T11:28:42;7.67;96.79
68248;SHT30;55064;49.636;12.164;2024-02-04T11:31:14;7.70;97.08
68248;SHT30;55064;49.636;12.164;2024-02-04T11:33:41;7.66;97.16
68248;SHT30;55064;49.636;12.164;2024-02-04T11:36:07;7.63;96.98
68248;SHT30;55064;49.636;12.164;2024-02-04T11:38:35;7.63;97.08
68248;SHT30;55064;49.636;12.164;2024-02-04T11:41:03;7.62;96.95
68248;SHT30;55064;49.636;12.164;2024-02-04T11:43:28;7.63;97.13
68248;SHT30;55064;49.636;12.164;2024-02-04T11:45:54;7.58;97.33
68248;SHT30;55064;49.636;12.164;2024-02-04T11:48:19;7.56;97.69
68248;SHT30;55064;49.636;12.164;2024-02-04T11:50:52;7.55;97.56
68248;SHT30;55064;49.636;12.164;2024-02-04T11:53:18;7.54;97.83
68248;SHT30;55064;49.636;12.164;2024-02-04T11:55:44;7.55;97.46
68248;SHT30;55064;49.636;12.164;2024-02-04T11:58:11;7.55;97.60
68248;SHT30;55064;49.636;12.164;2024-02-04T12:00:37;7.59;97.25
68248;SHT30;55064;49.636;12.164;2024-02-04T12:03:03;7.65;96.93
68248;SHT30;55064;49.636;12.164;2024-02-04T12:05:34;7.67;96.50
68248;SHT30;55064;49.636;12.164;2024-02-04T12:08:04;7.70;96.92
68248;SHT30;55064;49.636;12.164;2024-02-04T12:10:36;7.70;96.70
68248;SHT30;55064;49.636;12.164;2024-02-04T12:13:04;7.76;95.61
68248;SHT30;55064;49.636;12.164;2024-02-04T12:15:30;7.76;95.78
68248;SHT30;55064;49.636;12.164;2024-02-04T12:18:04;7.80;95.52
68248;SHT30;55064;49.636;12.164;2024-02-04T12:20:30;7.82;95.12
68248;SHT30;55064;49.636;12.164;2024-02-04T12:22:55;7.83;95.28
68248;SHT30;55064;49.636;12.164;2024-02-04T12:25:20;7.80;94.85
68248;SHT30;55064;49.636;12.164;2024-02-04T12:27:46;7.82;94.77
68248;SHT30;55064;49.636;12.164;2024-02-04T12:30:13;7.83;94.54
68248;SHT30;55064;49.636;12.164;2024-02-04T12:32:39;7.83;95.14
68248;SHT30;55064;49.636;12.164;2024-02-04T12:35:06;7.79;96.16
68248;SHT30;55064;49.636;12.164;2024-02-04T12:37:31;7.70;97.27
68248;SHT30;55064;49.636;12.164;2024-02-04T12:39:59;7.65;97.63
68248;SHT30;55064;49.636;12.164;2024-02-04T12:42:24;7.55;98.02
68248;SHT30;55064;49.636;12.164;2024-02-04T12:44:50;7.59;97.56
68248;SHT30;55064;49.636;12.164;2024-02-04T12:47:20;7.56;97.68
68248;SHT30;55064;49.636;12.164;2024-02-04T12:49:46;7.55;97.26
68248;SHT30;55064;49.636;12.164;2024-02-04T12:52:11;7.58;96.96
68248;SHT30;55064;49.636;12.164;2024-02-04T12:54:44;7.61;96.92
68248;SHT30;55064;49.636;12.164;2024-02-04T12:57:10;7.62;96.63
68248;SHT30;55064;49.636;12.164;2024-02-04T12:59:38;7.67;95.76
68248;SHT30;55064;49.636;12.164;2024-02-04T13:02:05;7.70;95.59
68248;SHT30;55064;49.636;12.164;2024-02-04T13:04:38;7.74;94.98
68248;SHT30;55064;49.636;12.164;2024-02-04T13:07:07;7.77;95.14
68248;SHT30;55064;49.636;12.164;2024-02-04T13:09:34;7.82;95.01
68248;SHT30;55064;49.636;12.164;2024-02-04T13:12:04;7.82;95.17
68248;SHT30;55064;49.636;12.164;2024-02-04T13:14:29;7.87;94.82
68248;SHT30;55064;49.636;12.164;2024-02-04T13:16:55;7.91;93.91
68248;SHT30;55064;49.636;12.164;2024-02-04T13:19:20;7.93;93.95
68248;SHT30;55064;49.636;12.164;2024-02-04T13:21:46;7.95;93.18
68248;SHT30;55064;49.636;12.164;2024-02-04T13:24:11;8.03;92.96
68248;SHT30;55064;49.636;12.164;2024-02-04T13:26:37;8.01;93.12
68248;SHT30;55064;49.636;12.164;2024-02-04T13:29:02;8.04;93.56
68248;SHT30;55064;49.636;12.164;2024-02-04T13:31:28;8.10;92.48
68248;SHT30;55064;49.636;12.164;2024-02-04T13:33:53;8.07;92.57
68248;SHT30;55064;49.636;12.164;2024-02-04T13:36:19;8.11;92.47
68248;SHT30;55064;49.636;12.164;2024-02-04T13:38:44;8.17;92.08
68248;SHT30;55064;49.636;12.164;2024-02-04T13:41:10;8.18;91.96
68248;SHT30;55064;49.636;12.164;2024-02-04T13:43:35;8.18;92.16
68248;SHT30;55064;49.636;12.164;2024-02-04T13:46:01;8.24;92.03
68248;SHT30;55064;49.636;12.164;2024-02-04T13:48:28;8.24;91.82
68248;SHT30;55064;49.636;12.164;2024-02-04T13:50:54;8.24;92.07
68248;SHT30;55064;49.636;12.164;2024-02-04T13:53:20;8.27;92.64
68248;SHT30;55064;49.636;12.164;2024-02-04T13:55:46;8.22;92.88
68248;SHT30;55064;49.636;12.164;2024-02-04T13:58:11;8.18;92.73
68248;SHT30;55064;49.636;12.164;2024-02-04T14:00:37;8.20;92.68
68248;SHT30;55064;49.636;12.164;2024-02-04T14:03:02;8.21;93.01
68248;SHT30;55064;49.636;12.164;2024-02-04T14:05:28;8.18;93.36
68248;SHT30;55064;49.636;12.164;2024-02-04T14:07:53;8.12;93.24
68248;SHT30;55064;49.636;12.164;2024-02-04T14:10:19;8.10;93.49
68248;SHT30;55064;49.636;12.164;2024-02-04T14:12:44;8.05;93.67
68248;SHT30;55064;49.636;12.164;2024-02-04T14:15:11;8.05;93.75
68248;SHT30;55064;49.636;12.164;2024-02-04T14:17:37;8.07;93.83
68248;SHT30;55064;49.636;12.164;2024-02-04T14:20:03;8.08;93.81
68248;SHT30;55064;49.636;12.164;2024-02-04T14:22:29;8.01;93.97
68248;SHT30;55064;49.636;12.164;2024-02-04T14:24:55;8.00;94.47
68248;SHT30;55064;49.636;12.164;2024-02-04T14:27:20;7.97;94.25
68248;SHT30;55064;49.636;12.164;2024-02-04T14:29:46;7.93;94.57
68248;SHT30;55064;49.636;12.164;2024-02-04T14:32:11;7.91;94.43
68248;SHT30;55064;49.636;12.164;2024-02-04T14:34:36;7.91;94.44
68248;SHT30;55064;49.636;12.164;2024-02-04T14:37:02;7.91;94.49
68248;SHT30;55064;49.636;12.164;2024-02-04T14:39:27;7.91;94.69
68248;SHT30;55064;49.636;12.164;2024-02-04T14:41:53;7.90;94.81
68248;SHT30;55064;49.636;12.164;2024-02-04T14:44:20;7.97;93.98
68248;SHT30;55064;49.636;12.164;2024-02-04T14:46:45;7.98;93.87
68248;SHT30;55064;49.636;12.164;2024-02-04T14:49:11;7.94;94.52
68248;SHT30;55064;49.636;12.164;2024-02-04T14:51:40;7.91;94.62
68248;SHT30;55064;49.636;12.164;2024-02-04T14:54:06;7.89;94.54
68248;SHT30;55064;49.636;12.164;2024-02-04T14:56:37;7.87;94.95
68248;SHT30;55064;49.636;12.164;2024-02-04T14:59:03;7.87;94.98
68248;SHT30;55064;49.636;12.164;2024-02-04T15:01:28;7.89;95.07
68248;SHT30;55064;49.636;12.164;2024-02-04T15:03:53;7.84;95.08
68248;SHT30;55064;49.636;12.164;2024-02-04T15:06:19;7.84;95.26
68248;SHT30;55064;49.636;12.164;2024-02-04T15:08:44;7.80;95.26
68248;SHT30;55064;49.636;12.164;2024-02-04T15:11:10;7.80;95.57
68248;SHT30;55064;49.636;12.164;2024-02-04T15:13:35;7.80;95.50
68248;SHT30;55064;49.636;12.164;2024-02-04T15:16:02;7.79;95.33
68248;SHT30;55064;49.636;12.164;2024-02-04T15:18:27;7.87;94.87
68248;SHT30;55064;49.636;12.164;2024-02-04T15:20:53;7.83;94.87
68248;SHT30;55064;49.636;12.164;2024-02-04T15:23:19;7.90;94.48
68248;SHT30;55064;49.636;12.164;2024-02-04T15:25:44;7.93;94.27
68248;SHT30;55064;49.636;12.164;2024-02-04T15:28:11;7.91;94.06
68248;SHT30;55064;49.636;12.164;2024-02-04T15:30:38;7.93;94.21